Ana Sayfa
METAR-TAF:

METAR-TAF

Havaalanları :

Hosea Kutako Uluslararası Havalimanı

Windhoek, Namibya

Enlem: 22-29S, Boylam: 017-28E, yükseklik: 1715 m

Güncel hava durumu gözlemi

Rapor saat 15:00 UTC de 26 dakika önce yapıldı.
Rüzgar kuzeybatıdan 12 kt
Sıcaklık 25°C
Nem 11%
Basınç 1023 hPa
Görüş mesafesi 10 km veya daha fazla
1500 m altında bulut yok ve kümülonimbus yok

METAR: FYWH 081500Z 32012KT CAVOK 25/M07 Q1023 NOSIG

Saat: 17:26 (15:26 UTC)

Tahmin

Rapor saat 10:00 UTC de 5 saat ve 26 dakika önce yapıldı.
Ayın 08'si saat 12 UTC'den ayın 09'si saat 12 UTC'ye kadar geçerli Tahmin
Rüzgar kuzeydan 13 kt ve 23 kt'a kadar ani rüzgarlar
Görüş mesafesi 10 km veya daha fazla
1500 m altında bulut yok ve kümülonimbus yok
Dönüşüyor
ayın 08'si saat 19 UTC'den ayın 08'si saat 21 UTC'ye kadar
Rüzgar batıdan 6 kt

TAF: FYWH 081000Z 0812/0912 36013G23KT CAVOK BECMG 0819/0821 27006KT

4.000'den fazla havaalanı için hava durumu gözlemleri ve tahminleri (METAR ve TAF raporları).

Kullanılabilir istasyonlar harita üzerinde sarı ve kırmızı noktalarla gösterilir.

İstasyonun adını görmek için fareyi noktanın üzerinde gezdirin.

Sonrasında hava gözlem ve tahminlerini görmek için tıklayın.

Haritayı değiştirmek için: yaklaştırmak için siyah artı işaretli yeşil düğmeye ve uzaklaştırmak için de eksi işaretli düğmeye hızla tıklayın; bitişik haritalar için yeşil okları kullanın.


METAR-TAF: